createdAt,value
2023-04-27T00:01:43.419Z,2.80
2023-04-27T00:04:10.482Z,2.90
2023-04-27T00:06:37.646Z,2.90
2023-04-27T00:09:04.681Z,2.90
2023-04-27T00:11:31.786Z,2.90
2023-04-27T00:13:58.730Z,2.90
2023-04-27T00:16:26.452Z,3.00
2023-04-27T00:18:53.881Z,3.10
2023-04-27T00:21:20.904Z,3.20
2023-04-27T00:23:47.852Z,3.30
2023-04-27T00:26:14.706Z,3.20
2023-04-27T00:28:41.606Z,3.30
2023-04-27T00:31:08.467Z,3.20
2023-04-27T00:33:36.133Z,3.20
2023-04-27T00:36:03.095Z,3.20
2023-04-27T00:38:30.873Z,3.30
2023-04-27T00:41:06.494Z,3.30
2023-04-27T00:43:43.716Z,3.40
2023-04-27T00:46:13.846Z,3.40
2023-04-27T00:48:42.074Z,3.40
2023-04-27T00:51:09.041Z,3.40
2023-04-27T00:53:37.620Z,3.40
2023-04-27T00:56:07.293Z,3.40
2023-04-27T00:58:34.507Z,3.50
2023-04-27T01:01:01.894Z,3.50
2023-04-27T01:03:30.171Z,3.40
2023-04-27T01:05:59.183Z,3.40
2023-04-27T01:08:26.113Z,3.40
2023-04-27T01:10:53.025Z,3.30
2023-04-27T01:13:20.378Z,3.20
2023-04-27T01:15:47.233Z,3.10
2023-04-27T01:18:14.144Z,3.00
2023-04-27T01:20:42.146Z,3.00
2023-04-27T01:23:17.253Z,3.10
2023-04-27T01:25:44.911Z,3.00
2023-04-27T01:28:11.957Z,3.00
2023-04-27T01:30:38.861Z,3.00
2023-04-27T01:35:47.186Z,2.90
2023-04-27T01:38:14.155Z,2.90
2023-04-27T01:40:41.085Z,2.80
2023-04-27T01:43:08.004Z,2.80
2023-04-27T01:45:34.847Z,2.80
2023-04-27T01:48:01.788Z,2.80
2023-04-27T01:50:28.688Z,2.70
2023-04-27T01:52:56.034Z,2.60
2023-04-27T01:55:22.873Z,2.60
2023-04-27T01:57:49.743Z,2.60
2023-04-27T02:00:17.592Z,2.50
2023-04-27T02:02:45.321Z,2.40
2023-04-27T02:05:12.316Z,2.30
2023-04-27T02:07:39.198Z,2.20
2023-04-27T02:10:07.186Z,2.10
2023-04-27T02:12:34.167Z,1.90
2023-04-27T02:15:01.120Z,1.90
2023-04-27T02:17:29.143Z,1.80
2023-04-27T02:19:56.153Z,1.70
2023-04-27T02:22:23.342Z,1.60
2023-04-27T02:24:50.265Z,1.50
2023-04-27T02:27:17.156Z,1.50
2023-04-27T02:29:44.490Z,1.50
2023-04-27T02:32:11.878Z,1.50
2023-04-27T02:34:38.709Z,1.40
2023-04-27T02:37:05.573Z,1.40
2023-04-27T02:39:32.422Z,1.40
2023-04-27T02:41:59.316Z,1.40
2023-04-27T02:44:26.894Z,1.40
2023-04-27T02:46:53.801Z,1.30
2023-04-27T02:49:20.874Z,1.30
2023-04-27T02:51:47.722Z,1.20
2023-04-27T02:54:14.558Z,1.20
2023-04-27T02:56:41.488Z,1.20
2023-04-27T02:59:08.458Z,1.20
2023-04-27T03:01:35.601Z,1.10
2023-04-27T03:04:02.763Z,1.00
2023-04-27T03:06:29.925Z,0.80
2023-04-27T03:08:56.808Z,0.70
2023-04-27T03:11:23.676Z,0.60
2023-04-27T03:13:50.734Z,0.40
2023-04-27T03:16:17.708Z,0.30
2023-04-27T03:18:44.727Z,0.30
2023-04-27T03:21:13.783Z,0.30
2023-04-27T03:23:40.843Z,0.30
2023-04-27T03:26:11.247Z,0.30
2023-04-27T03:28:39.262Z,0.30
2023-04-27T03:31:12.741Z,0.30
2023-04-27T03:33:41.142Z,0.40
2023-04-27T03:36:10.613Z,0.40
2023-04-27T03:38:38.179Z,0.30
2023-04-27T03:41:05.449Z,0.50
2023-04-27T03:43:32.343Z,0.60
2023-04-27T03:45:59.291Z,0.60
2023-04-27T03:48:26.167Z,0.60
2023-04-27T03:50:53.077Z,0.60
2023-04-27T03:53:20.017Z,0.60
2023-04-27T03:55:47.654Z,0.60
2023-04-27T03:58:14.520Z,0.70
2023-04-27T04:00:41.376Z,0.80
2023-04-27T04:03:08.628Z,0.80
2023-04-27T04:05:35.994Z,0.90
2023-04-27T04:08:03.382Z,0.90
2023-04-27T04:10:30.228Z,1.00
2023-04-27T04:12:57.093Z,1.00
2023-04-27T04:15:24.095Z,1.20
2023-04-27T04:17:51.190Z,1.20
2023-04-27T04:20:18.131Z,1.30
2023-04-27T04:22:45.081Z,1.40
2023-04-27T04:25:12.918Z,1.60
2023-04-27T04:27:41.151Z,1.70
2023-04-27T04:30:08.781Z,1.80
2023-04-27T04:32:38.024Z,1.90
2023-04-27T04:35:08.330Z,1.90
2023-04-27T04:37:36.340Z,2.00
2023-04-27T04:40:08.862Z,2.10
2023-04-27T04:42:38.970Z,2.20
2023-04-27T04:45:07.176Z,2.30
2023-04-27T04:47:34.482Z,2.40
2023-04-27T04:50:01.469Z,2.60
2023-04-27T04:52:28.644Z,2.70
2023-04-27T04:54:55.601Z,2.80
2023-04-27T04:57:22.682Z,2.90
2023-04-27T04:59:49.563Z,3.00
2023-04-27T05:02:16.583Z,3.10
2023-04-27T05:04:43.648Z,3.10
2023-04-27T05:07:14.562Z,3.30
2023-04-27T05:09:41.929Z,3.40
2023-04-27T05:12:08.960Z,3.40
2023-04-27T05:14:36.185Z,3.60
2023-04-27T05:17:03.157Z,3.60
2023-04-27T05:19:31.426Z,3.80
2023-04-27T05:22:01.151Z,3.90
2023-04-27T05:24:28.017Z,4.10
2023-04-27T05:26:55.049Z,4.20
2023-04-27T05:29:22.925Z,4.40
2023-04-27T05:31:49.925Z,4.70
2023-04-27T05:34:17.339Z,4.80
2023-04-27T05:36:44.811Z,4.90
2023-04-27T05:39:12.018Z,5.10
2023-04-27T05:41:39.419Z,5.30
2023-04-27T05:44:06.863Z,5.50
2023-04-27T05:46:34.886Z,5.70
2023-04-27T05:49:02.872Z,5.90
2023-04-27T05:51:29.831Z,6.10
2023-04-27T05:53:56.728Z,6.10
2023-04-27T05:56:23.618Z,6.20
2023-04-27T05:58:50.629Z,6.40
2023-04-27T06:01:17.586Z,6.50
2023-04-27T06:03:44.569Z,6.70
2023-04-27T06:06:11.687Z,6.90
2023-04-27T06:08:39.372Z,7.10
2023-04-27T06:11:06.678Z,7.30
2023-04-27T06:13:33.848Z,7.40
2023-04-27T06:16:01.719Z,7.50
2023-04-27T06:18:28.829Z,7.50
2023-04-27T06:21:01.614Z,7.70
2023-04-27T06:23:28.988Z,7.90
2023-04-27T06:25:56.107Z,8.10
2023-04-27T06:28:23.228Z,8.40
2023-04-27T06:30:50.276Z,8.60
2023-04-27T06:33:17.335Z,8.70
2023-04-27T06:35:47.345Z,8.90
2023-04-27T06:38:14.600Z,9.20
2023-04-27T06:40:41.819Z,9.40
2023-04-27T06:43:08.811Z,9.50
2023-04-27T06:45:35.921Z,9.60
2023-04-27T06:48:02.892Z,9.70
2023-04-27T06:50:30.424Z,9.80
2023-04-27T06:52:57.350Z,9.90
2023-04-27T06:55:24.218Z,10.00
2023-04-27T06:57:51.108Z,10.30
2023-04-27T07:00:18.909Z,10.60
2023-04-27T07:02:45.933Z,10.90
2023-04-27T07:05:12.891Z,11.30
2023-04-27T07:07:39.779Z,11.70
2023-04-27T07:10:08.184Z,11.70
2023-04-27T07:12:35.241Z,11.70
2023-04-27T07:15:04.208Z,11.80
2023-04-27T07:17:31.077Z,11.90
2023-04-27T07:19:57.927Z,12.00
2023-04-27T07:22:24.768Z,12.10
2023-04-27T07:24:51.908Z,12.10
2023-04-27T07:27:18.915Z,12.10
2023-04-27T07:29:45.956Z,11.90
2023-04-27T07:32:12.998Z,11.80
2023-04-27T07:34:52.009Z,12.00
2023-04-27T07:37:20.315Z,12.10
2023-04-27T07:39:50.344Z,12.10
2023-04-27T07:42:18.388Z,12.10
2023-04-27T07:44:45.288Z,12.20
2023-04-27T07:47:13.385Z,12.30
2023-04-27T07:49:40.779Z,12.50
2023-04-27T07:52:08.280Z,12.70
2023-04-27T07:54:35.616Z,13.00
2023-04-27T07:57:14.113Z,13.30
2023-04-27T07:59:41.713Z,13.50
2023-04-27T08:03:50.789Z,14.20
2023-04-27T08:06:19.759Z,14.50
2023-04-27T08:08:47.233Z,14.70
2023-04-27T08:11:14.175Z,14.70
2023-04-27T08:13:41.252Z,14.80
2023-04-27T08:16:08.165Z,15.20
2023-04-27T08:18:35.128Z,15.40
2023-04-27T08:21:02.024Z,15.40
2023-04-27T08:23:32.697Z,15.60
2023-04-27T08:25:59.706Z,15.50
2023-04-27T08:28:26.551Z,15.90
2023-04-27T08:30:53.408Z,16.20
2023-04-27T08:33:20.582Z,16.30
2023-04-27T08:35:47.480Z,16.60
2023-04-27T08:38:14.319Z,17.10
2023-04-27T08:40:44.424Z,17.50
2023-04-27T08:43:11.744Z,17.80
2023-04-27T08:45:50.095Z,17.60
2023-04-27T08:48:17.383Z,17.30
2023-04-27T08:50:50.215Z,17.40
2023-04-27T08:53:22.321Z,17.90
2023-04-27T08:55:52.460Z,18.00
2023-04-27T08:58:19.436Z,17.90
2023-04-27T09:00:47.784Z,17.90
2023-04-27T09:03:25.633Z,18.20
2023-04-27T09:06:00.643Z,18.50
2023-04-27T09:08:49.955Z,18.50
2023-04-27T09:11:36.637Z,18.40
2023-04-27T09:14:23.981Z,18.40
2023-04-27T09:16:57.999Z,18.60
2023-04-27T09:19:30.646Z,18.40
2023-04-27T09:22:23.773Z,18.60
2023-04-27T09:24:52.454Z,18.90
2023-04-27T09:27:23.196Z,18.90
2023-04-27T09:29:50.203Z,19.70
2023-04-27T09:32:20.720Z,19.60
2023-04-27T09:34:47.723Z,19.50
2023-04-27T09:37:15.497Z,20.20
2023-04-27T09:39:42.894Z,20.60
2023-04-27T09:42:12.976Z,21.40
2023-04-27T09:44:39.938Z,21.80
2023-04-27T09:47:07.833Z,21.40
2023-04-27T09:49:35.922Z,21.20
2023-04-27T09:52:02.821Z,21.60
2023-04-27T09:54:35.188Z,22.50
2023-04-27T09:57:51.547Z,23.30
2023-04-27T10:01:07.049Z,23.20
2023-04-27T10:04:28.320Z,23.70
2023-04-27T10:07:07.043Z,23.20
2023-04-27T10:10:02.754Z,20.60
2023-04-27T10:12:36.870Z,20.20
2023-04-27T10:15:17.776Z,20.50
2023-04-27T10:17:52.921Z,20.10
2023-04-27T10:20:36.389Z,18.80
2023-04-27T10:23:04.049Z,18.40
2023-04-27T10:25:41.149Z,19.30
2023-04-27T10:28:08.886Z,20.60
2023-04-27T10:30:39.132Z,21.90
2023-04-27T10:33:12.890Z,22.20
2023-04-27T10:35:44.318Z,22.60
2023-04-27T10:38:18.356Z,23.10
2023-04-27T10:40:57.020Z,21.90
2023-04-27T10:43:31.096Z,20.70
2023-04-27T10:46:16.310Z,20.70
2023-04-27T10:48:44.803Z,20.40
2023-04-27T10:51:17.272Z,19.90
2023-04-27T10:53:44.701Z,20.20
2023-04-27T10:56:11.673Z,21.00
2023-04-27T10:58:48.936Z,22.70
2023-04-27T11:01:27.161Z,23.60
2023-04-27T11:04:02.177Z,23.30
2023-04-27T11:06:33.075Z,22.80
2023-04-27T11:09:01.549Z,21.80
2023-04-27T11:11:28.569Z,22.30
2023-04-27T11:13:55.866Z,24.80
2023-04-27T11:16:23.591Z,26.40
2023-04-27T11:18:50.684Z,27.80
2023-04-27T11:21:23.418Z,29.70
2023-04-27T11:23:50.265Z,29.80
2023-04-27T11:26:21.682Z,29.10
2023-04-27T11:29:05.006Z,28.60
2023-04-27T11:31:47.648Z,28.60
2023-04-27T11:34:24.935Z,29.90
2023-04-27T11:37:18.026Z,31.40
2023-04-27T11:39:46.207Z,31.40
2023-04-27T11:42:28.693Z,30.30
2023-04-27T11:45:07.915Z,29.20
2023-04-27T11:47:35.901Z,27.80
2023-04-27T11:50:08.073Z,26.80
2023-04-27T11:52:42.837Z,25.40
2023-04-27T11:55:15.780Z,24.50
2023-04-27T11:57:43.268Z,24.10
2023-04-27T12:00:11.254Z,23.70
2023-04-27T12:02:39.113Z,23.70
2023-04-27T12:05:07.811Z,23.20
2023-04-27T12:07:35.616Z,22.30
2023-04-27T12:10:02.605Z,21.60
2023-04-27T12:12:29.674Z,21.50
2023-04-27T12:14:56.662Z,21.10
2023-04-27T12:17:23.588Z,20.70
2023-04-27T12:19:50.551Z,20.60
2023-04-27T12:22:17.474Z,20.80
2023-04-27T12:24:44.372Z,20.90
2023-04-27T12:27:12.030Z,21.50
2023-04-27T12:29:39.024Z,22.50
2023-04-27T12:32:06.532Z,22.50
2023-04-27T12:34:34.372Z,22.70
2023-04-27T12:37:01.304Z,24.10
2023-04-27T12:39:28.253Z,24.70
2023-04-27T12:41:55.397Z,24.10
2023-04-27T12:44:22.564Z,22.60
2023-04-27T12:46:49.765Z,22.10
2023-04-27T12:49:18.094Z,21.80
2023-04-27T12:51:47.700Z,21.20
2023-04-27T12:54:14.823Z,20.50
2023-04-27T12:56:42.178Z,20.00
2023-04-27T12:59:09.286Z,20.10
2023-04-27T13:01:36.570Z,20.70
2023-04-27T13:04:07.009Z,20.20
2023-04-27T13:06:34.214Z,19.70
2023-04-27T13:09:01.249Z,20.10
2023-04-27T13:11:28.214Z,20.00
2023-04-27T13:13:55.371Z,20.10
2023-04-27T13:16:22.567Z,19.40
2023-04-27T13:18:52.051Z,18.80
2023-04-27T13:21:19.577Z,18.30
2023-04-27T13:23:47.707Z,18.40
2023-04-27T13:26:16.130Z,18.70
2023-04-27T13:28:43.588Z,18.80
2023-04-27T13:31:11.039Z,19.10
2023-04-27T13:33:44.036Z,19.20
2023-04-27T13:36:13.094Z,19.00
2023-04-27T13:38:40.659Z,18.50
2023-04-27T13:41:08.931Z,18.50
2023-04-27T13:43:36.132Z,19.50
2023-04-27T13:46:03.609Z,20.90
2023-04-27T13:48:31.150Z,21.80
2023-04-27T13:50:58.506Z,22.30
2023-04-27T13:53:26.337Z,21.50
2023-04-27T13:55:55.897Z,20.30
2023-04-27T13:58:25.999Z,19.60
2023-04-27T14:00:53.991Z,19.10
2023-04-27T14:03:22.687Z,18.90
2023-04-27T14:05:51.214Z,19.00
2023-04-27T14:08:18.830Z,18.70
2023-04-27T14:10:46.342Z,18.30
2023-04-27T14:13:13.889Z,17.90
2023-04-27T14:15:41.674Z,17.60
2023-04-27T14:18:09.798Z,17.40
2023-04-27T14:20:38.856Z,17.20
2023-04-27T14:23:06.844Z,17.10
2023-04-27T14:25:34.675Z,17.10
2023-04-27T14:28:05.757Z,17.40
2023-04-27T14:30:33.854Z,17.60
2023-04-27T14:33:01.364Z,18.10
2023-04-27T14:35:28.727Z,18.50
2023-04-27T14:37:57.068Z,18.50
2023-04-27T14:40:24.083Z,18.40
2023-04-27T14:42:50.949Z,18.20
2023-04-27T14:45:18.753Z,18.70
2023-04-27T14:47:45.750Z,20.30
2023-04-27T14:50:12.907Z,20.30
2023-04-27T14:52:39.766Z,20.00
2023-04-27T14:55:07.848Z,19.70
2023-04-27T14:57:36.582Z,20.20
2023-04-27T15:00:09.890Z,20.10
2023-04-27T15:02:41.112Z,19.90
2023-04-27T15:05:09.022Z,19.50
2023-04-27T15:07:36.076Z,19.10
2023-04-27T15:10:03.975Z,19.10
2023-04-27T15:12:30.972Z,19.00
2023-04-27T15:14:57.870Z,18.90
2023-04-27T15:17:26.268Z,18.50
2023-04-27T15:19:53.155Z,17.90
2023-04-27T15:22:20.773Z,17.50
2023-04-27T15:24:47.768Z,17.30
2023-04-27T15:27:14.661Z,17.30
2023-04-27T15:29:41.804Z,17.10
2023-04-27T15:32:08.716Z,17.00
2023-04-27T15:34:35.675Z,16.80
2023-04-27T15:37:03.509Z,17.40
2023-04-27T15:39:30.961Z,19.00
2023-04-27T15:41:59.499Z,20.40
2023-04-27T15:44:26.804Z,21.30
2023-04-27T15:46:54.045Z,22.00
2023-04-27T15:49:21.659Z,22.70
2023-04-27T15:51:51.110Z,22.40
2023-04-27T15:54:18.358Z,20.80
2023-04-27T15:56:45.577Z,19.40
2023-04-27T15:59:12.532Z,18.50
2023-04-27T16:01:39.604Z,18.10
2023-04-27T16:04:06.701Z,18.50
2023-04-27T16:06:36.772Z,19.20
2023-04-27T16:09:04.748Z,18.80
2023-04-27T16:11:32.069Z,18.00
2023-04-27T16:13:59.435Z,17.30
2023-04-27T16:16:26.870Z,16.60
2023-04-27T16:18:54.585Z,16.20
2023-04-27T16:21:21.632Z,16.00
2023-04-27T16:23:48.770Z,16.00
2023-04-27T16:26:15.994Z,16.00
2023-04-27T16:28:43.259Z,15.90
2023-04-27T16:31:11.819Z,15.90
2023-04-27T16:33:38.839Z,15.90
2023-04-27T16:36:06.277Z,16.00
2023-04-27T16:38:33.162Z,16.00
2023-04-27T16:41:00.270Z,16.00
2023-04-27T16:43:27.149Z,16.20
2023-04-27T16:45:54.027Z,16.90
2023-04-27T16:48:20.997Z,17.10
2023-04-27T16:50:47.961Z,17.30
2023-04-27T16:53:19.477Z,17.70
2023-04-27T16:55:46.637Z,17.60
2023-04-27T16:58:13.639Z,17.10
2023-04-27T17:00:40.973Z,16.70
2023-04-27T17:03:07.910Z,16.30
2023-04-27T17:05:35.092Z,16.00
2023-04-27T17:08:04.327Z,15.80
2023-04-27T17:10:32.310Z,15.60
2023-04-27T17:12:59.692Z,15.40
2023-04-27T17:15:28.415Z,15.20
2023-04-27T17:17:56.128Z,15.20
2023-04-27T17:20:23.103Z,15.10
2023-04-27T17:22:50.267Z,15.00
2023-04-27T17:25:17.180Z,15.20
2023-04-27T17:27:44.174Z,15.30
2023-04-27T17:30:11.507Z,15.50
2023-04-27T17:32:38.585Z,15.80
2023-04-27T17:35:06.286Z,16.00
2023-04-27T17:37:33.197Z,16.10
2023-04-27T17:40:00.228Z,16.30
2023-04-27T17:42:27.189Z,16.40
2023-04-27T17:44:54.269Z,16.40
2023-04-27T17:47:22.292Z,16.30
2023-04-27T17:49:49.280Z,16.00
2023-04-27T17:52:16.158Z,15.80
2023-04-27T17:54:43.273Z,15.60
2023-04-27T17:57:10.241Z,15.30
2023-04-27T17:59:37.221Z,14.90
2023-04-27T18:02:04.199Z,14.60
2023-04-27T18:04:31.232Z,14.30
2023-04-27T18:06:58.272Z,13.90
2023-04-27T18:09:26.914Z,13.60
2023-04-27T18:11:53.900Z,13.40
2023-04-27T18:14:20.790Z,13.30
2023-04-27T18:16:47.662Z,13.10
2023-04-27T18:19:14.752Z,12.80
2023-04-27T18:21:42.016Z,12.60
2023-04-27T18:24:09.767Z,12.30
2023-04-27T18:26:36.845Z,12.10
2023-04-27T18:29:04.149Z,11.90
2023-04-27T18:31:31.155Z,11.70
2023-04-27T18:33:59.345Z,11.40
2023-04-27T18:36:27.524Z,11.20
2023-04-27T18:38:55.527Z,11.10
2023-04-27T18:41:23.005Z,10.90
2023-04-27T18:43:49.863Z,10.70
2023-04-27T18:46:16.903Z,10.60
2023-04-27T18:48:43.812Z,10.40
2023-04-27T18:51:10.842Z,10.30
2023-04-27T18:53:37.779Z,10.20
2023-04-27T18:56:06.312Z,10.00
2023-04-27T18:58:34.036Z,9.90
2023-04-27T19:01:00.999Z,9.70
2023-04-27T19:03:28.119Z,9.60
2023-04-27T19:05:55.445Z,9.40
2023-04-27T19:08:22.287Z,9.30
2023-04-27T19:10:51.561Z,9.30
2023-04-27T19:13:18.409Z,9.30
2023-04-27T19:15:45.253Z,9.20
2023-04-27T19:18:12.207Z,9.10
2023-04-27T19:20:40.492Z,9.00
2023-04-27T19:23:09.189Z,8.90
2023-04-27T19:25:36.175Z,8.70
2023-04-27T19:28:04.879Z,8.60
2023-04-27T19:30:31.820Z,8.50
2023-04-27T19:32:58.737Z,8.40
2023-04-27T19:35:27.286Z,8.30
2023-04-27T19:37:54.150Z,8.20
2023-04-27T19:40:21.302Z,8.00
2023-04-27T19:42:48.605Z,7.80
2023-04-27T19:45:17.735Z,7.70
2023-04-27T19:47:45.114Z,7.60
2023-04-27T19:50:12.441Z,7.60
2023-04-27T19:52:39.334Z,7.70
2023-04-27T19:55:07.686Z,7.70
2023-04-27T19:57:36.316Z,7.70
2023-04-27T20:00:11.582Z,7.60
2023-04-27T20:02:39.059Z,7.60
2023-04-27T20:05:07.362Z,7.50
2023-04-27T20:07:34.405Z,7.40
2023-04-27T20:10:02.652Z,7.50
2023-04-27T20:12:51.364Z,7.70
2023-04-27T20:15:16.624Z,7.70
2023-04-27T20:17:43.560Z,7.60
2023-04-27T20:20:11.253Z,7.60
2023-04-27T20:22:38.965Z,7.70
2023-04-27T20:25:07.746Z,7.90
2023-04-27T20:27:35.611Z,7.80
2023-04-27T20:30:02.952Z,7.80
2023-04-27T20:32:29.870Z,7.90
2023-04-27T20:34:56.706Z,8.20
2023-04-27T20:37:24.640Z,8.40
2023-04-27T20:39:52.042Z,8.50
2023-04-27T20:42:19.046Z,8.60
2023-04-27T20:44:46.335Z,8.80
2023-04-27T20:47:14.646Z,8.80
2023-04-27T20:49:42.312Z,8.90
2023-04-27T20:52:09.257Z,8.90
2023-04-27T20:54:36.405Z,9.00
2023-04-27T20:57:08.334Z,9.00
2023-04-27T20:59:35.327Z,9.10
2023-04-27T21:02:02.533Z,9.00
2023-04-27T21:04:29.640Z,8.90
2023-04-27T21:06:56.720Z,8.70
2023-04-27T21:09:23.596Z,8.50
2023-04-27T21:11:50.725Z,8.30
2023-04-27T21:14:17.749Z,8.10
2023-04-27T21:16:44.901Z,7.90
2023-04-27T21:19:14.636Z,7.60
2023-04-27T21:21:42.231Z,7.40
2023-04-27T21:24:09.154Z,7.20
2023-04-27T21:26:36.143Z,7.10
2023-04-27T21:29:05.401Z,7.00
2023-04-27T21:31:33.786Z,7.00
2023-04-27T21:34:03.290Z,6.90
2023-04-27T21:36:30.297Z,6.90
2023-04-27T21:38:57.181Z,6.80
2023-04-27T21:41:24.098Z,6.80
2023-04-27T21:43:51.132Z,6.80
2023-04-27T21:46:18.207Z,6.80
2023-04-27T21:48:45.327Z,6.70
2023-04-27T21:51:12.214Z,6.80
2023-04-27T21:53:39.085Z,6.90
2023-04-27T21:56:06.620Z,7.00
2023-04-27T21:58:35.985Z,7.10
2023-04-27T22:01:02.849Z,7.20
2023-04-27T22:03:29.919Z,7.30
2023-04-27T22:05:57.451Z,7.40
2023-04-27T22:08:24.597Z,7.40
2023-04-27T22:10:51.815Z,7.30
2023-04-27T22:13:19.758Z,7.40
2023-04-27T22:15:48.319Z,7.50
2023-04-27T22:18:15.787Z,7.70
2023-04-27T22:20:43.476Z,7.80
2023-04-27T22:23:10.712Z,7.80
2023-04-27T22:25:37.749Z,7.90
2023-04-27T22:28:04.972Z,7.90
2023-04-27T22:30:31.892Z,8.00
2023-04-27T22:32:59.038Z,8.10
2023-04-27T22:35:27.897Z,8.30
2023-04-27T22:37:56.343Z,8.30
2023-04-27T22:40:23.467Z,8.40
2023-04-27T22:42:50.631Z,8.40
2023-04-27T22:45:17.542Z,8.60
2023-04-27T22:47:45.582Z,8.60
2023-04-27T22:50:13.635Z,8.60
2023-04-27T22:52:42.739Z,8.70
2023-04-27T22:55:11.760Z,8.70
2023-04-27T22:57:40.248Z,8.70
2023-04-27T23:00:11.810Z,8.70
2023-04-27T23:02:40.792Z,8.70
2023-04-27T23:05:09.097Z,8.70
2023-04-27T23:07:37.016Z,8.80
2023-04-27T23:10:05.725Z,8.70
2023-04-27T23:12:33.180Z,8.60
2023-04-27T23:15:00.391Z,8.60
2023-04-27T23:17:30.713Z,8.60
2023-04-27T23:20:00.920Z,8.60
2023-04-27T23:22:28.471Z,8.50
2023-04-27T23:24:55.336Z,8.40
2023-04-27T23:27:23.521Z,8.40
2023-04-27T23:29:51.221Z,8.40
2023-04-27T23:32:18.253Z,8.50
2023-04-27T23:34:45.174Z,8.60
2023-04-27T23:37:12.184Z,8.60
2023-04-27T23:39:39.108Z,8.60
2023-04-27T23:42:06.216Z,8.60
2023-04-27T23:44:33.087Z,8.60
2023-04-27T23:46:59.924Z,8.70
2023-04-27T23:49:26.774Z,8.70
2023-04-27T23:51:53.710Z,8.80
2023-04-27T23:54:20.557Z,8.80
2023-04-27T23:56:47.502Z,8.80
2023-04-27T23:59:14.990Z,8.80
